»·PEaware :: DAL2806 KSFO-KSAN

DAL2806 :: KSFO-KSAN

FLIGHT INFORMATION

Flight Status: Arrived
Operator:
Delta Air Lines
More flights by this operator :: More flights under this callsign
Pilot: Kirk M. (10269)
Aircraft: AIRBUS A320
(A320)
More flights by this aircraft type
Origin: KSFO San Francisco Intl
United States
Destination: KSAN San Diego Intl-Lindbergh
United States
More flights between these airports :: More routes between these airports
Route: +OFFSH1 MCKEY LAX COMIX1
File this flight plan on PilotEdge
Remarks: IFR
Altitude:
(Current/Filed)
33,000ft
Speed:
(Current/Filed)
450kts
Departed: 22-Dec-17 09:42 AM
Arrived: 22-Dec-17 10:51 AM
Distance/Time
Traveled:
388nm/1:09
Distance/Time
To Go:
Arrived

Flight Plot

Page will automatically refresh every two minutes.

Flight plan parsing failed; only flown route is shown


Map Options




Map Legend


Flown Route
Filed Route
Departure Airport
Arrival Airport
Navaid (VOR, NDB)
Fix

Horizontal Profiles

Position Reports

Time Latitude Longitude Heading Altitude Ground
Speed
22-Dec-17 09:14 37.615746 -122.383224 223 21ft 0kts
22-Dec-17 09:15 37.615746 -122.383224 223 21ft 0kts
22-Dec-17 09:16 37.615746 -122.383224 223 21ft 0kts
22-Dec-17 09:17 37.615746 -122.383224 223 21ft 0kts
22-Dec-17 09:18 37.615746 -122.383224 223 21ft 0kts
22-Dec-17 09:19 37.615746 -122.383224 223 21ft 0kts
22-Dec-17 09:20 37.615746 -122.383224 223 21ft 0kts
22-Dec-17 09:21 37.615746 -122.383224 223 21ft 0kts
22-Dec-17 09:22 37.615746 -122.383224 223 21ft 0kts
22-Dec-17 09:23 37.615746 -122.383224 223 21ft 0kts
22-Dec-17 09:24 37.615746 -122.383224 223 21ft 0kts
22-Dec-17 09:25 37.615746 -122.383224 223 21ft 0kts
22-Dec-17 09:26 37.615746 -122.383224 223 21ft 0kts
22-Dec-17 09:27 37.615746 -122.383224 223 21ft 0kts
22-Dec-17 09:28 37.615746 -122.383224 223 21ft 0kts
22-Dec-17 09:29 37.615746 -122.383224 223 21ft 0kts
22-Dec-17 09:30 37.615746 -122.383224 223 21ft 0kts
22-Dec-17 09:31 37.615746 -122.383224 223 21ft 0kts
22-Dec-17 09:32 37.615746 -122.383224 223 21ft 0kts
22-Dec-17 09:33 37.615746 -122.383224 223 21ft 0kts
22-Dec-17 09:34 37.615746 -122.383224 223 21ft 0kts
22-Dec-17 09:35 37.615746 -122.383224 223 21ft 0kts
22-Dec-17 09:36 37.615746 -122.383224 223 21ft 0kts
22-Dec-17 09:37 37.615760 -122.383207 224 21ft 1kts
22-Dec-17 09:38 37.616100 -122.382802 221 21ft 2kts
22-Dec-17 09:39 37.616383 -122.382517 215 21ft 2kts
22-Dec-17 09:40 37.616150 -122.382216 116 21ft 0kts
22-Dec-17 09:41 37.616149 -122.382212 116 21ft 0kts
22-Dec-17 09:42 37.616149 -122.382212 116 21ft 0kts
22-Dec-17 09:43 37.615963 -122.381732 116 21ft 7kts
22-Dec-17 09:44 37.613918 -122.381521 209 21ft 16kts
22-Dec-17 09:45 37.609724 -122.384278 216 21ft 17kts
22-Dec-17 09:46 37.608481 -122.383910 114 21ft 0kts
22-Dec-17 09:47 37.608607 -122.382469 27 21ft 12kts
22-Dec-17 09:48 37.628765 -122.369436 20 670ft 189kts
22-Dec-17 09:49 37.679225 -122.365694 359 2954ft 269kts
22-Dec-17 09:50 37.742537 -122.408629 288 5927ft 260kts
22-Dec-17 09:51 37.710332 -122.486887 215 8884ft 287kts
22-Dec-17 09:52 37.644459 -122.553139 217 11682ft 336kts
22-Dec-17 09:53 37.568207 -122.628421 217 14592ft 363kts
22-Dec-17 09:54 37.483054 -122.699865 194 17351ft 385kts
22-Dec-17 09:55 37.376024 -122.680799 169 19900ft 401kts
22-Dec-17 09:56 37.272715 -122.627821 145 22222ft 420kts
22-Dec-17 09:57 37.177299 -122.541733 145 24088ft 433kts
22-Dec-17 09:58 37.077560 -122.453456 146 25905ft 447kts
22-Dec-17 09:59 36.975039 -122.363183 146 27447ft 459kts
22-Dec-17 10:00 36.871016 -122.271904 147 28766ft 469kts
22-Dec-17 10:01 36.764107 -122.178436 147 30064ft 479kts
22-Dec-17 10:02 36.654733 -122.083123 147 31273ft 484kts
22-Dec-17 10:03 36.544784 -121.987644 146 32596ft 487kts
22-Dec-17 10:04 36.434412 -121.892154 146 33256ft 486kts
22-Dec-17 10:05 36.321461 -121.794852 146 33319ft 510kts
22-Dec-17 10:06 36.205175 -121.694924 146 33421ft 510kts
22-Dec-17 10:07 36.089356 -121.595802 146 33429ft 509kts
22-Dec-17 10:08 35.973429 -121.496957 146 33426ft 509kts
22-Dec-17 10:09 35.876956 -121.414980 146 33425ft 509kts
22-Dec-17 10:10 35.762017 -121.317623 146 33447ft 508kts
22-Dec-17 10:11 35.648186 -121.221581 146 33445ft 507kts
22-Dec-17 10:12 35.532323 -121.124114 146 33449ft 508kts
22-Dec-17 10:13 35.436262 -121.000754 122 33474ft 510kts
22-Dec-17 10:14 35.356690 -120.859275 123 33450ft 508kts
22-Dec-17 10:15 35.279760 -120.723759 123 33428ft 508kts
22-Dec-17 10:16 35.199484 -120.582911 123 33423ft 508kts
22-Dec-17 10:17 35.119541 -120.443152 123 33429ft 508kts
22-Dec-17 10:18 35.040514 -120.305572 123 33431ft 508kts
22-Dec-17 10:19 34.960755 -120.167279 122 33406ft 509kts
22-Dec-17 10:20 34.879820 -120.027489 121 33447ft 508kts
22-Dec-17 10:21 34.799413 -119.889141 121 33436ft 505kts
22-Dec-17 10:22 34.718826 -119.750930 120 33414ft 504kts
22-Dec-17 10:23 34.645291 -119.625610 120 33412ft 503kts
22-Dec-17 10:24 34.564603 -119.488382 120 33418ft 503kts
22-Dec-17 10:25 34.483889 -119.351581 120 33427ft 503kts
22-Dec-17 10:26 34.404496 -119.217508 121 33427ft 503kts
22-Dec-17 10:27 34.326018 -119.080348 119 33430ft 502kts
22-Dec-17 10:28 34.243404 -118.946098 121 33435ft 503kts
22-Dec-17 10:29 34.161883 -118.810939 120 33433ft 502kts
22-Dec-17 10:30 34.081254 -118.676944 119 33466ft 498kts
22-Dec-17 10:31 34.000632 -118.543389 120 33424ft 493kts
22-Dec-17 10:32 33.922683 -118.417920 127 32763ft 471kts
22-Dec-17 10:33 33.849922 -118.324422 128 32030ft 458kts
22-Dec-17 10:34 33.765483 -118.215043 127 30694ft 452kts
22-Dec-17 10:35 33.682463 -118.105716 128 28611ft 447kts
22-Dec-17 10:36 33.599383 -117.996928 129 26238ft 445kts
22-Dec-17 10:37 33.515930 -117.892863 133 24429ft 431kts
22-Dec-17 10:38 33.431504 -117.794980 132 22572ft 418kts
22-Dec-17 10:39 33.352895 -117.698795 132 19810ft 396kts
22-Dec-17 10:40 33.280719 -117.610916 132 17503ft 352kts
22-Dec-17 10:41 33.205854 -117.541114 143 15779ft 344kts
22-Dec-17 10:42 33.128279 -117.476250 143 13887ft 344kts
22-Dec-17 10:43 33.052103 -117.412644 143 12068ft 319kts
22-Dec-17 10:44 32.983515 -117.355076 144 10571ft 300kts
22-Dec-17 10:45 32.918046 -117.300216 145 9651ft 280kts
22-Dec-17 10:46 32.855467 -117.248214 144 8438ft 274kts
22-Dec-17 10:47 32.805826 -117.186825 104 7352ft 260kts
22-Dec-17 10:48 32.787922 -117.105043 104 6255ft 251kts
22-Dec-17 10:49 32.765972 -117.031075 114 5515ft 236kts
22-Dec-17 10:50 32.742098 -116.961780 107 4996ft 198kts
22-Dec-17 10:51 32.706108 -116.945237 236 4444ft 185kts
22-Dec-17 10:52 32.697002 -117.003443 279 3542ft 181kts
22-Dec-17 10:53 32.703554 -117.061683 279 2204ft 177kts
22-Dec-17 10:54 32.714027 -117.109534 286 1606ft 136kts
22-Dec-17 10:55 32.724138 -117.150730 285 619ft 126kts
22-Dec-17 10:56 32.733308 -117.188941 287 22ft 64kts
22-Dec-17 10:57 32.734195 -117.194830 245 22ft 0kts
22-Dec-17 10:58 32.734462 -117.197608 289 21ft 13kts
22-Dec-17 10:59 32.733991 -117.199182 143 21ft 4kts
22-Dec-17 11:00 32.733698 -117.198949 147 21ft 0kts
22-Dec-17 11:01 32.733698 -117.198949 147 21ft 0kts

Navigation Log

Ident Type
Flight plan parsing failed, navigation log unavailable